LFPM 200030Z AUTO 09006KT 5000 BR SCT002/// BKN056/// BKN090/// ///TCU 12/11 Q1005

2019/10/20 00:30 LFPM 200030Z AUTO 09006KT 5000 BR SCT002/// BKN056/// BKN090/// ///TCU 12/11 Q1005 St Louis SEO Company | St Louis Web Design and Internet Marketing